Time;durP1;ratioP1;P1;durP2;ratioP2;P2;SDS_P1;SDS_P2;PMS_P1;PMS_P2;Temp;Humidity;BMP_temperature;BMP_pressure;BME280_temperature;BME280_humidity;BME280_pressure;Samples;Min_cycle;Max_cycle;Signal;HPM_P1;HPM_P2
2022/03/24 00:02:49;;;;;;;;;;;;;;;;;;;;;
2022/03/24 00:05:43;;;;;;;7.70;4.03;;;;;;;5.47;29.29;93611.50;5015066;28;20486;-89
2022/03/24 00:08:23;;;;;;;8.82;3.63;;;;;;;5.16;29.43;93563.31;4998272;28;20414;-89
2022/03/24 00:11:09;;;;;;;6.95;3.78;;;;;;;5.57;29.36;93631.72;5031213;28;20029;-89
2022/03/24 00:20:30;;;;;;;8.55;3.92;;;;;;;5.36;28.98;93600.09;5034294;28;20157;-88
2022/03/24 00:23:42;;;;;;;7.47;3.30;;;;;;;5.50;29.18;93623.25;5036725;28;20037;-88
2022/03/24 00:26:14;;;;;;;7.68;3.63;;;;;;;5.32;29.07;93583.41;5007599;28;20071;-89
2022/03/24 00:28:42;;;;;;;9.57;3.85;;;;;;;5.51;28.99;93625.59;5036431;28;20035;-89
2022/03/24 00:31:15;;;;;;;7.45;3.70;;;;;;;5.28;29.22;93581.47;5020935;28;20131;-90
2022/03/24 00:34:10;;;;;;;7.30;3.40;;;;;;;5.39;29.17;93594.44;5024404;28;20037;-88
2022/03/24 00:36:55;;;;;;;7.72;3.78;;;;;;;5.14;29.00;93554.97;5038021;28;20335;-88
2022/03/24 00:40:06;;;;;;;;;;;;;;;;;;;;;
2022/03/24 00:43:00;;;;;;;;;;;;;;;;;;;;;
2022/03/24 00:45:54;;;;;;;8.48;3.70;;;;;;;5.34;29.33;93590.97;5029703;28;20044;-89
2022/03/24 00:48:43;;;;;;;8.32;3.63;;;;;;;5.40;29.10;93597.84;5022077;28;20720;-88
2022/03/24 00:51:46;;;;;;;7.40;3.47;;;;;;;5.38;28.53;93576.50;5025127;28;20047;-88
2022/03/24 00:54:26;;;;;;;;;;;;;;;;;;;;;
2022/03/24 00:57:34;;;;;;;7.13;3.47;;;;;;;4.96;29.48;93548.84;5024598;28;20123;-89
2022/03/24 01:00:25;;;;;;;8.90;3.15;;;;;;;4.97;28.71;93536.66;5001066;28;20048;-89
2022/03/24 01:03:26;;;;;;;;;;;;;;;;;;;;;
2022/03/24 01:06:26;;;;;;;;;;;;;;;;;;;;;
2022/03/24 01:12:20;;;;;;;7.03;3.08;;;;;;;4.90;29.40;93549.75;5004234;28;20077;-88
2022/03/24 01:15:26;;;;;;;;;;;;;;;;;;;;;
2022/03/24 01:18:20;;;;;;;11.60;3.20;;;;;;;5.03;29.61;93574.69;5023571;28;20041;-89
2022/03/24 01:21:10;;;;;;;;;;;;;;;;;;;;;
2022/03/24 01:24:10;;;;;;;;;;;;;;;;;;;;;
2022/03/24 01:27:17;;;;;;;;;;;;;;;;;;;;;
2022/03/24 01:30:04;;;;;;;;;;;;;;;;;;;;;
2022/03/24 01:33:14;;;;;;;;;;;;;;;;;;;;;
2022/03/24 01:39:23;;;;;;;12.63;3.92;;;;;;;4.70;28.82;93523.34;5028663;28;20053;-88
2022/03/24 01:42:27;;;;;;;6.72;3.60;;;;;;;4.76;29.25;93533.59;5025120;28;20048;-88
2022/03/24 01:45:30;;;;;;;;;;;;;;;;;;;;;
2022/03/24 01:48:26;;;;;;;8.30;3.88;;;;;;;4.99;29.76;93555.41;5026015;28;20095;-89
2022/03/24 01:51:33;;;;;;;;;;;;;;;;;;;;;
2022/03/24 01:54:35;;;;;;;9.07;4.30;;;;;;;4.73;29.33;93533.28;5039251;28;20043;-89
2022/03/24 01:57:28;;;;;;;10.75;3.67;;;;;;;4.75;29.40;93539.81;5038104;28;20649;-89
2022/03/24 02:00:16;;;;;;;9.15;4.35;;;;;;;4.80;30.49;93545.13;5032372;28;20391;-89
2022/03/24 02:03:20;;;;;;;8.95;3.88;;;;;;;4.76;30.23;93543.22;5020040;28;20128;-89
2022/03/24 02:06:09;;;;;;;8.32;3.88;;;;;;;4.45;30.41;93498.38;5037078;28;20045;-89
2022/03/24 02:09:40;;;;;;;;;;;;;;;;;;;;;
2022/03/24 02:12:47;;;;;;;7.03;3.45;;;;;;;4.51;30.00;93501.91;5019036;28;20072;-89
2022/03/24 02:15:53;;;;;;;;;;;;;;;;;;;;;
2022/03/24 02:18:54;;;;;;;9.10;3.65;;;;;;;4.93;30.15;93569.25;5023333;28;20505;-88
2022/03/24 02:22:12;;;;;;;7.38;3.65;;;;;;;4.88;30.11;93561.38;5056565;28;20037;-89
2022/03/24 02:24:51;;;;;;;9.18;3.50;;;;;;;4.68;30.42;93528.75;5039248;28;20487;-89
2022/03/24 02:27:32;;;;;;;7.55;3.70;;;;;;;4.44;30.27;93491.63;5058171;28;20496;-88
2022/03/24 02:30:13;;;;;;;7.47;3.53;;;;;;;4.53;30.47;93507.66;5041383;28;20053;-88
2022/03/24 02:33:27;;;;;;;8.77;3.65;;;;;;;4.50;29.47;93489.94;5026815;28;20041;-89
2022/03/24 02:36:43;;;;;;;8.57;3.85;;;;;;;4.67;29.85;93508.25;5018935;28;20056;-89
2022/03/24 02:39:28;;;;;;;7.80;3.65;;;;;;;4.48;29.92;93484.19;5036141;28;20036;-88
2022/03/24 02:42:40;;;;;;;;;;;;;;;;;;;;;
2022/03/24 02:45:43;;;;;;;6.40;3.53;;;;;;;4.31;30.63;93471.09;5033526;28;20046;-88
2022/03/24 02:48:17;;;;;;;5.82;3.05;;;;;;;4.44;30.97;93493.44;5003092;28;20042;-89
2022/03/24 02:51:06;;;;;;;;;;;;;;;;;;;;;
2022/03/24 02:54:05;;;;;;;6.03;3.13;;;;;;;4.80;30.48;93545.13;5042513;28;20047;-88
2022/03/24 02:57:35;;;;;;;;;;;;;;;;;;;;;
2022/03/24 03:00:18;;;;;;;8.38;3.60;;;;;;;4.74;29.96;93546.00;5055892;28;20084;-89
2022/03/24 03:03:06;;;;;;;9.50;3.60;;;;;;;4.29;30.51;93473.13;5005044;28;20045;-89
2022/03/24 03:06:11;;;;;;;8.10;3.72;;;;;;;4.51;30.40;93517.47;5003766;28;20100;-88
2022/03/24 03:08:42;;;;;;;7.43;3.47;;;;;;;4.24;30.30;93484.16;5003525;28;20057;-88
2022/03/24 03:12:06;;;;;;;7.35;2.97;;;;;;;4.20;30.43;93482.22;4988425;28;20107;-89
2022/03/24 03:15:14;;;;;;;8.70;3.35;;;;;;;4.30;30.60;93488.47;5018066;28;20053;-88
2022/03/24 03:17:54;;;;;;;;;;;;;;;;;;;;;
2022/03/24 03:20:45;;;;;;;5.30;3.05;;;;;;;4.59;30.59;93543.06;5022328;28;20088;-89
2022/03/24 03:23:43;;;;;;;;;;;;;;;;;;;;;
2022/03/24 03:26:19;;;;;;;5.95;3.17;;;;;;;4.29;30.57;93509.41;5018059;28;20093;-88
2022/03/24 03:29:16;;;;;;;;;;;;;;;;;;;;;
2022/03/24 03:32:07;;;;;;;;;;;;;;;;;;;;;
2022/03/24 03:35:12;;;;;;;;;;;;;;;;;;;;;
2022/03/24 03:38:05;;;;;;;;;;;;;;;;;;;;;
2022/03/24 03:41:07;;;;;;;6.65;3.15;;;;;;;4.07;30.09;93488.38;5055372;28;20041;-90
2022/03/24 03:44:06;;;;;;;6.03;3.03;;;;;;;4.11;30.08;93494.72;5035090;28;20496;-92
2022/03/24 03:47:01;;;;;;;;;;;;;;;;;;;;;
2022/03/24 03:50:02;;;;;;;5.80;2.90;;;;;;;4.27;29.98;93527.75;5055485;28;20037;-88
2022/03/24 03:53:00;;;;;;;7.40;3.20;;;;;;;4.03;30.22;93489.84;5045206;28;20095;-89
2022/03/24 03:55:51;;;;;;;5.20;2.60;;;;;;;4.51;30.12;93564.13;5039295;28;20476;-89
2022/03/24 03:59:03;;;;;;;5.15;2.90;;;;;;;4.08;30.76;93495.94;5026041;28;20045;-88
2022/03/24 04:02:02;;;;;;;;;;;;;;;;;;;;;
2022/03/24 04:04:46;;;;;;;;;;;;;;;;;;;;;
2022/03/24 04:07:51;;;;;;;7.43;3.00;;;;;;;4.09;31.39;93509.69;5034821;28;20037;-89
2022/03/24 04:10:50;;;;;;;6.22;3.00;;;;;;;3.88;31.63;93483.25;5017191;28;20069;-89
2022/03/24 04:13:53;;;;;;;10.32;3.10;;;;;;;3.88;32.02;93491.03;5002222;28;20046;-88
2022/03/24 04:16:49;;;;;;;6.82;3.58;;;;;;;4.18;31.38;93542.06;5004834;28;20049;-89
2022/03/24 04:19:32;;;;;;;5.50;2.80;;;;;;;4.14;31.12;93527.94;5018777;28;20042;-89
2022/03/24 04:22:22;;;;;;;;;;;;;;;;;;;;;
2022/03/24 04:25:11;;;;;;;6.60;3.20;;;;;;;3.99;30.83;93505.03;5033028;28;20041;-89
2022/03/24 04:27:55;;;;;;;;;;;;;;;;;;;;;
2022/03/24 04:31:15;;;;;;;;;;;;;;;;;;;;;
2022/03/24 04:34:12;;;;;;;;;;;;;;;;;;;;;
2022/03/24 04:36:56;;;;;;;7.32;3.38;;;;;;;3.87;29.94;93478.28;5034628;28;20033;-90
2022/03/24 04:40:02;;;;;;;6.93;3.72;;;;;;;3.90;30.35;93483.84;5033368;28;20037;-89
2022/03/24 04:45:34;;;;;;;7.43;3.70;;;;;;;3.99;31.39;93506.84;5041794;28;20053;-89
2022/03/24 04:48:08;;;;;;;6.40;3.10;;;;;;;3.80;31.35;93488.75;5020457;28;20486;-88
2022/03/24 04:50:34;;;;;;;6.93;3.33;;;;;;;4.06;30.65;93523.88;5019708;28;20433;-88
2022/03/24 04:53:40;;;;;;;;;;;;;;;;;;;;;
2022/03/24 04:56:52;;;;;;;;;;;;;;;;;;;;;
2022/03/24 04:59:50;;;;;;;7.45;3.45;;;;;;;3.80;30.74;93488.75;5043681;28;20067;-88
2022/03/24 05:02:39;;;;;;;5.55;3.30;;;;;;;3.89;31.00;93497.78;5016637;28;20045;-89
2022/03/24 05:05:49;;;;;;;;;;;;;;;;;;;;;
2022/03/24 05:08:58;;;;;;;;;;;;;;;;;;;;;
2022/03/24 05:11:50;;;;;;;7.45;3.75;;;;;;;4.04;31.30;93525.13;5041267;28;20098;-88
2022/03/24 05:14:32;;;;;;;6.95;3.58;;;;;;;3.81;30.97;93489.56;5042636;28;20037;-89
2022/03/24 05:17:03;;;;;;;6.03;3.35;;;;;;;3.87;30.62;93494.66;5039993;28;20538;-89
2022/03/24 05:20:01;;;;;;;7.30;3.25;;;;;;;3.88;30.32;93493.63;5040357;28;20044;-89
2022/03/24 05:22:58;;;;;;;8.38;3.42;;;;;;;4.28;29.72;93546.69;5039355;28;20646;-89
2022/03/24 05:25:48;;;;;;;;;;;;;;;;;;;;;
2022/03/24 05:28:51;;;;;;;;;;;;;;;;;;;;;
2022/03/24 05:35:35;;;;;;;;;;;;;;;;;;;;;
2022/03/24 05:38:19;;;;;;;6.20;3.38;;;;;;;4.34;31.10;93538.81;5039298;28;20044;-91
2022/03/24 05:41:26;;;;;;;6.68;3.47;;;;;;;4.35;30.59;93532.66;5031849;28;20037;-88
2022/03/24 05:47:34;;;;;;;7.82;4.20;;;;;;;4.99;30.20;93576.94;5026539;28;20045;-89
2022/03/24 05:50:17;;;;;;;7.63;4.00;;;;;;;4.73;29.89;93515.91;5050591;28;20047;-89
2022/03/24 05:53:09;;;;;;;8.55;3.95;;;;;;;5.34;29.69;93575.38;5005219;28;20056;-85
2022/03/24 05:55:37;;;;;;;5.63;3.22;;;;;;;6.28;28.58;93514.59;5036823;28;20422;-86
2022/03/24 05:58:04;;;;;;;8.10;3.30;;;;;;;9.07;24.93;93527.09;5032112;28;20025;-85
2022/03/24 06:00:30;;;;;;;8.02;3.47;;;;;;;11.51;22.36;93564.69;5047993;28;20532;-87
2022/03/24 06:02:56;;;;;;;6.68;4.20;;;;;;;13.08;20.90;93548.47;5053984;28;20094;-84
2022/03/24 06:05:23;;;;;;;7.38;3.67;;;;;;;14.46;19.90;93556.00;5005353;28;20053;-84
2022/03/24 06:07:49;;;;;;;7.85;4.18;;;;;;;15.45;17.93;93541.91;5049830;28;20045;-84
2022/03/24 06:10:15;;;;;;;6.45;3.58;;;;;;;16.36;17.36;93546.53;5004234;28;20087;-85
2022/03/24 06:12:41;;;;;;;15.93;3.85;;;;;;;17.15;16.54;93558.59;5020891;28;20490;-85
2022/03/24 06:15:07;;;;;;;9.15;3.72;;;;;;;17.59;15.81;93554.38;5055026;28;20051;-86
2022/03/24 06:17:33;;;;;;;6.63;3.90;;;;;;;18.44;15.45;93566.72;5035973;28;20569;-85
2022/03/24 06:20:01;;;;;;;7.55;3.78;;;;;;;19.08;14.81;93540.44;5056386;28;20033;-84
2022/03/24 06:22:28;;;;;;;8.55;3.80;;;;;;;19.98;14.04;93538.88;5058256;28;20036;-85
2022/03/24 06:24:54;;;;;;;7.72;4.07;;;;;;;20.75;13.74;93565.38;5032230;28;20049;-84
2022/03/24 06:27:20;;;;;;;7.53;4.20;;;;;;;21.33;13.05;93542.38;5051725;28;20041;-85
2022/03/24 06:29:47;;;;;;;7.63;4.13;;;;;;;22.00;12.44;93561.03;5030593;28;20033;-85
2022/03/24 06:32:13;;;;;;;6.90;4.15;;;;;;;22.45;12.26;93539.63;5050003;28;20060;-85
2022/03/24 06:34:39;;;;;;;7.60;4.32;;;;;;;23.39;11.67;93555.66;5008745;28;20056;-85
2022/03/24 06:37:05;;;;;;;8.63;4.32;;;;;;;23.86;11.71;93553.09;5055529;28;20049;-85
2022/03/24 06:39:31;;;;;;;7.00;4.30;;;;;;;23.77;11.75;93549.81;5020967;28;20425;-85
2022/03/24 06:41:56;;;;;;;7.00;4.25;;;;;;;24.37;11.25;93559.69;5037609;28;20418;-84
2022/03/24 06:44:22;;;;;;;6.80;4.40;;;;;;;25.07;11.05;93556.28;5017676;28;20037;-85
2022/03/24 06:46:48;;;;;;;8.15;4.60;;;;;;;25.62;10.92;93550.88;5035652;28;20076;-84
2022/03/24 06:49:15;;;;;;;7.57;4.60;;;;;;;26.42;10.99;93545.75;5034422;28;20034;-84
2022/03/24 06:51:41;;;;;;;7.20;4.00;;;;;;;27.31;9.85;93532.78;5036959;28;20048;-84
2022/03/24 06:54:07;;;;;;;7.32;4.32;;;;;;;27.74;9.66;93546.69;5036976;28;20032;-84
2022/03/24 06:56:33;;;;;;;8.82;4.65;;;;;;;28.48;8.67;93551.25;5055441;28;20045;-84
2022/03/24 06:58:58;;;;;;;8.23;4.78;;;;;;;29.12;8.86;93552.88;5055776;28;20025;-84
2022/03/24 07:01:24;;;;;;;7.47;4.20;;;;;;;29.37;8.54;93542.97;5037501;28;20051;-83
2022/03/24 07:03:51;;;;;;;7.68;4.00;;;;;;;30.09;8.40;93554.72;5055047;28;20045;-84
2022/03/24 07:06:17;;;;;;;8.65;3.83;;;;;;;29.95;8.48;93546.63;5020991;28;20053;-84
2022/03/24 07:08:43;;;;;;;6.30;3.83;;;;;;;30.50;7.81;93553.63;5037853;28;20116;-84
2022/03/24 07:11:09;;;;;;;5.75;3.72;;;;;;;30.59;7.89;93547.81;5015169;28;20140;-84
2022/03/24 07:13:34;;;;;;;11.85;4.00;;;;;;;26.04;9.92;93539.38;5031956;28;20033;-84
2022/03/24 07:16:00;;;;;;;6.88;4.10;;;;;;;26.52;8.67;93545.13;5037298;28;20140;-85
2022/03/24 07:18:26;;;;;;;6.85;3.97;;;;;;;25.13;9.09;93547.63;5040280;28;20040;-84
2022/03/24 07:20:51;;;;;;;5.90;3.80;;;;;;;24.18;9.55;93555.03;5074643;28;20036;-84
2022/03/24 07:23:17;;;;;;;6.50;4.00;;;;;;;25.10;10.11;93556.34;5074288;28;20508;-84
2022/03/24 07:25:43;;;;;;;7.50;3.50;;;;;;;23.82;10.67;93546.91;5056468;28;20052;-83
2022/03/24 07:28:12;;;;;;;5.72;3.17;;;;;;;23.03;10.84;93554.66;5074585;28;20115;-83
2022/03/24 07:30:39;;;;;;;6.60;3.63;;;;;;;21.16;11.63;93561.94;5057166;28;20040;-83
2022/03/24 07:33:04;;;;;;;9.00;3.75;;;;;;;19.62;13.83;93555.97;5040032;28;20083;-83
2022/03/24 07:35:34;;;;;;;8.57;3.72;;;;;;;19.04;15.26;93555.41;5056635;28;20041;-84
2022/03/24 07:37:59;;;;;;;7.85;3.90;;;;;;;18.39;14.89;93561.56;5039974;28;20044;-83
2022/03/24 07:40:25;;;;;;;6.88;3.95;;;;;;;18.18;16.06;93553.41;5039914;28;20123;-83
2022/03/24 07:42:53;;;;;;;6.47;3.95;;;;;;;17.98;16.55;93529.00;5026405;28;20474;-84
2022/03/24 07:45:23;;;;;;;6.75;4.32;;;;;;;17.51;16.75;93557.72;5036295;28;20033;-84
2022/03/24 07:48:08;;;;;;;12.45;4.00;;;;;;;16.31;18.62;93561.72;5033791;28;20041;-84
2022/03/24 07:50:45;;;;;;;6.93;3.70;;;;;;;16.48;18.58;93555.81;5036104;28;20033;-83
2022/03/24 07:53:14;;;;;;;8.38;4.40;;;;;;;15.85;19.81;93563.41;5054144;28;20037;-83
2022/03/24 07:55:41;;;;;;;8.85;4.30;;;;;;;15.35;20.45;93548.09;5036603;28;20115;-85
2022/03/24 07:58:11;;;;;;;8.00;3.90;;;;;;;15.45;20.25;93555.09;5036417;28;20048;-83
2022/03/24 08:00:37;;;;;;;7.75;4.50;;;;;;;14.89;20.70;93555.97;5036100;28;20033;-83
2022/03/24 08:03:06;;;;;;;11.23;4.07;;;;;;;15.34;20.29;93559.75;5054141;28;20044;-83
2022/03/24 08:05:32;;;;;;;6.45;3.53;;;;;;;15.08;18.93;93559.34;5048810;28;20049;-85
2022/03/24 08:07:58;;;;;;;8.30;3.80;;;;;;;15.07;18.94;93565.72;5034044;28;20043;-83
2022/03/24 08:10:23;;;;;;;8.88;3.90;;;;;;;14.92;18.82;93558.81;5048913;28;20038;-84
2022/03/24 08:12:49;;;;;;;8.63;3.72;;;;;;;15.56;18.94;93563.63;5049308;28;20034;-84
2022/03/24 08:15:15;;;;;;;7.60;3.95;;;;;;;15.14;19.79;93563.47;5031926;28;20126;-84
2022/03/24 08:17:40;;;;;;;8.75;3.80;;;;;;;14.77;20.91;93561.66;4999635;28;20409;-85
2022/03/24 08:20:06;;;;;;;7.47;3.80;;;;;;;14.94;20.93;93551.41;5016375;28;20044;-84
2022/03/24 08:22:32;;;;;;;10.07;3.65;;;;;;;15.28;20.62;93555.63;5033448;28;20048;-84
2022/03/24 08:24:58;;;;;;;11.60;3.72;;;;;;;15.49;19.88;93561.34;5032320;28;20417;-84
2022/03/24 08:27:24;;;;;;;6.55;3.80;;;;;;;15.50;20.13;93547.06;5032913;28;20036;-87
2022/03/24 08:29:50;;;;;;;6.78;3.65;;;;;;;15.47;19.91;93563.50;5015587;28;20050;-84
2022/03/24 08:32:16;;;;;;;9.50;4.00;;;;;;;15.04;20.67;93570.75;4999763;28;20374;-84
2022/03/24 08:34:41;;;;;;;7.38;3.80;;;;;;;14.72;21.00;93562.50;5033425;28;20045;-83
2022/03/24 08:37:07;;;;;;;8.40;3.40;;;;;;;15.09;21.03;93560.94;5033167;28;20120;-84
2022/03/24 08:39:33;;;;;;;7.30;4.03;;;;;;;15.13;20.23;93566.41;4999542;28;20060;-85
2022/03/24 08:41:58;;;;;;;10.10;4.28;;;;;;;14.54;21.00;93552.72;5033559;28;20045;-84
2022/03/24 08:44:24;;;;;;;6.78;4.00;;;;;;;14.62;21.53;93536.31;5033530;28;20088;-85
2022/03/24 08:46:50;;;;;;;7.65;3.33;;;;;;;14.62;21.03;93557.41;5015447;28;20083;-84
2022/03/24 08:49:15;;;;;;;9.32;3.90;;;;;;;14.81;21.31;93569.78;4999488;28;20065;-85
2022/03/24 08:51:41;;;;;;;8.63;3.95;;;;;;;14.90;21.03;93568.84;4999552;28;20041;-85
2022/03/24 08:54:07;;;;;;;6.22;3.53;;;;;;;15.39;20.35;93578.13;4999154;28;20033;-85
2022/03/24 08:56:34;;;;;;;9.38;3.85;;;;;;;15.68;20.21;93576.34;5033377;28;20072;-85
2022/03/24 08:58:59;;;;;;;8.68;3.95;;;;;;;15.60;20.33;93570.66;5032955;28;20042;-85
2022/03/24 09:01:28;;;;;;;6.80;3.60;;;;;;;15.92;21.00;93577.00;5033277;28;20435;-86
2022/03/24 09:03:53;;;;;;;7.93;3.90;;;;;;;15.62;21.12;93573.78;5033131;28;20060;-84
2022/03/24 09:06:19;;;;;;;11.65;4.20;;;;;;;15.72;21.91;93577.38;5014893;28;20407;-84
2022/03/24 09:08:45;;;;;;;11.23;4.18;;;;;;;15.19;20.46;93576.59;5032922;28;20046;-84
2022/03/24 09:11:10;;;;;;;8.50;4.20;;;;;;;15.49;20.86;93566.63;5015869;28;20033;-84
2022/03/24 09:13:36;;;;;;;7.03;3.72;;;;;;;15.54;19.84;93566.53;5015359;28;20471;-85
2022/03/24 09:16:03;;;;;;;6.97;3.80;;;;;;;15.12;19.33;93570.13;5015553;28;20053;-85
2022/03/24 09:18:29;;;;;;;7.38;3.80;;;;;;;15.06;20.93;93563.34;5032984;28;20037;-84
2022/03/24 09:20:54;;;;;;;6.80;3.55;;;;;;;15.16;20.31;93577.16;5033476;28;20034;-84
2022/03/24 09:23:21;;;;;;;6.43;4.00;;;;;;;15.46;20.13;93583.03;5032928;28;20467;-84
2022/03/24 09:25:47;;;;;;;7.97;3.80;;;;;;;15.68;19.92;93571.84;5015356;28;20045;-84
2022/03/24 09:28:12;;;;;;;6.75;3.67;;;;;;;15.66;20.71;93578.50;5015655;28;20053;-84
2022/03/24 09:30:40;;;;;;;6.30;3.40;;;;;;;15.82;19.89;93577.16;5048269;28;20033;-84
2022/03/24 09:33:07;;;;;;;6.75;3.90;;;;;;;16.19;20.70;93572.78;5019030;28;20060;-85
2022/03/24 09:35:34;;;;;;;8.13;3.85;;;;;;;15.99;18.77;93560.75;5036066;28;20039;-85
2022/03/24 09:37:59;;;;;;;12.27;3.80;;;;;;;15.92;16.33;93571.72;5056950;28;20041;-86
2022/03/24 09:40:25;;;;;;;11.85;3.63;;;;;;;15.91;19.24;93585.19;5039290;28;20094;-85
2022/03/24 09:42:51;;;;;;;7.78;3.72;;;;;;;16.19;17.72;93572.78;5056571;28;20086;-85
2022/03/24 09:45:17;;;;;;;7.72;3.75;;;;;;;15.92;19.24;93566.44;5056711;28;20079;-84
2022/03/24 09:47:43;;;;;;;11.52;4.07;;;;;;;16.09;20.67;93578.25;5044217;28;20029;-87
2022/03/24 09:50:11;;;;;;;6.07;3.78;;;;;;;16.20;19.57;93571.72;5008517;28;20546;-84
2022/03/24 09:52:37;;;;;;;5.50;3.17;;;;;;;16.10;20.40;93566.59;5017204;28;20041;-84
2022/03/24 09:55:03;;;;;;;6.75;3.50;;;;;;;15.88;20.78;93565.44;5016936;28;20468;-84
2022/03/24 09:57:28;;;;;;;7.35;3.42;;;;;;;15.93;21.56;93572.50;5017350;28;20041;-84
2022/03/24 09:59:54;;;;;;;6.32;3.30;;;;;;;16.49;21.49;93562.69;5012852;28;20160;-85
2022/03/24 10:02:20;;;;;;;7.38;3.42;;;;;;;16.21;21.07;93560.84;5021032;28;20076;-84
2022/03/24 10:05:00;;;;;;;7.72;3.45;;;;;;;15.74;21.61;93562.00;5037589;28;20025;-86
2022/03/24 10:07:28;;;;;;;7.72;3.47;;;;;;;15.92;20.50;93560.34;5053645;28;20515;-88
2022/03/24 10:09:58;;;;;;;10.32;3.17;;;;;;;16.14;21.24;93555.16;5055327;28;20095;-85
2022/03/24 10:12:26;;;;;;;8.90;3.60;;;;;;;16.12;21.79;93548.63;5036501;28;20052;-85
2022/03/24 10:14:56;;;;;;;7.53;3.70;;;;;;;16.29;21.26;93556.72;5038222;28;20056;-84
2022/03/24 10:17:22;;;;;;;6.63;3.40;;;;;;;16.26;20.83;93559.97;5056335;28;20037;-84
2022/03/24 10:20:01;;;;;;;6.72;3.65;;;;;;;16.31;19.91;93556.44;5021859;28;20044;-84
2022/03/24 10:22:27;;;;;;;8.02;3.85;;;;;;;16.94;19.30;93555.66;5056501;28;20067;-84
2022/03/24 10:24:53;;;;;;;7.57;3.67;;;;;;;16.65;19.35;93556.75;5021431;28;20049;-86
2022/03/24 10:27:27;;;;;;;9.25;3.72;;;;;;;16.94;18.66;93557.50;5038161;28;20025;-85
2022/03/24 10:29:59;;;;;;;7.55;3.67;;;;;;;16.87;17.90;93554.50;5038425;28;20037;-87
2022/03/24 10:32:30;;;;;;;9.15;3.75;;;;;;;16.92;17.96;93520.00;5055896;28;20061;-85
2022/03/24 10:34:58;;;;;;;7.18;3.58;;;;;;;17.55;18.08;93548.09;5021226;28;20048;-85
2022/03/24 10:37:26;;;;;;;7.03;3.92;;;;;;;17.03;17.92;93534.56;5055724;28;20103;-85
2022/03/24 10:39:57;;;;;;;7.55;3.88;;;;;;;17.30;17.64;93548.75;5037087;28;20056;-86
2022/03/24 10:42:27;;;;;;;6.93;3.80;;;;;;;16.81;17.55;93538.72;5038153;28;20033;-85
2022/03/24 10:45:14;;;;;;;9.15;3.50;;;;;;;16.72;19.11;93556.34;5056245;28;20087;-87
2022/03/24 10:47:47;;;;;;;7.60;3.75;;;;;;;17.12;17.85;93548.63;5037366;28;20071;-86
2022/03/24 10:50:28;;;;;;;8.77;3.55;;;;;;;16.95;17.81;93548.50;5022489;28;20478;-87
2022/03/24 10:53:04;;;;;;;10.57;4.05;;;;;;;16.39;17.44;93527.47;5055150;28;20525;-88
2022/03/24 10:55:33;;;;;;;6.85;3.55;;;;;;;16.14;18.03;93534.03;5037703;28;20067;-87
2022/03/24 10:58:04;;;;;;;9.10;4.13;;;;;;;16.24;17.58;93531.19;5051358;28;20073;-87
2022/03/24 11:00:31;;;;;;;9.27;4.22;;;;;;;16.21;17.63;93536.28;5056335;28;20033;-89
2022/03/24 11:02:56;;;;;;;8.95;4.25;;;;;;;16.70;17.60;93541.88;5021537;28;20131;-87
2022/03/24 11:05:22;;;;;;;7.45;4.28;;;;;;;16.96;18.26;93523.63;5037390;28;20057;-87
2022/03/24 11:07:54;;;;;;;10.00;4.18;;;;;;;16.84;18.23;93519.66;5041105;28;20042;-87
2022/03/24 11:10:22;;;;;;;7.28;3.90;;;;;;;17.05;18.32;93524.47;5035606;28;20110;-87
2022/03/24 11:12:51;;;;;;;6.25;3.72;;;;;;;16.93;18.02;93525.00;5035551;28;20029;-87
2022/03/24 11:15:17;;;;;;;7.57;4.20;;;;;;;16.88;18.99;93537.53;5018384;28;20068;-87
2022/03/24 11:17:43;;;;;;;8.40;3.85;;;;;;;16.78;18.64;93534.03;5002040;28;20041;-87
2022/03/24 11:20:17;;;;;;;9.65;3.97;;;;;;;16.86;18.14;93524.63;5035634;28;20037;-88
2022/03/24 11:22:46;;;;;;;8.63;4.18;;;;;;;17.38;17.83;93519.69;5001861;28;20402;-88
2022/03/24 11:25:12;;;;;;;11.65;4.65;;;;;;;17.62;17.36;93516.69;5018184;28;20033;-88
2022/03/24 11:27:38;;;;;;;6.50;4.07;;;;;;;16.87;18.01;93525.41;5002120;28;20041;-88
2022/03/24 11:30:06;;;;;;;9.25;4.70;;;;;;;17.44;18.67;93496.50;5019258;28;20056;-88
2022/03/24 11:32:35;;;;;;;6.60;4.05;;;;;;;16.36;18.08;93498.97;5020085;28;20125;-87
2022/03/24 11:35:05;;;;;;;7.50;4.35;;;;;;;16.62;18.34;93519.59;5018212;28;20037;-87
2022/03/24 11:37:30;;;;;;;7.47;3.90;;;;;;;16.81;17.45;93504.34;4985317;28;20045;-88
2022/03/24 11:40:11;;;;;;;6.82;4.00;;;;;;;17.42;16.97;93507.41;5001696;28;20549;-88
2022/03/24 11:43:06;;;;;;;10.25;4.55;;;;;;;16.56;17.84;93502.28;5018376;28;20042;-87
2022/03/24 11:45:41;;;;;;;7.78;4.53;;;;;;;17.09;17.04;93500.81;5001066;28;20042;-89
2022/03/24 11:48:12;;;;;;;8.52;4.70;;;;;;;17.39;17.15;93486.84;5001908;28;20052;-89
2022/03/24 11:50:41;;;;;;;10.20;4.03;;;;;;;16.84;17.54;93500.34;5035407;28;20052;-89
2022/03/24 11:53:25;;;;;;;7.40;4.20;;;;;;;17.55;17.74;93499.69;5017933;28;20049;-89
2022/03/24 11:55:59;;;;;;;7.75;4.60;;;;;;;17.87;16.96;93488.78;5001719;28;20045;-89
2022/03/24 11:58:28;;;;;;;6.63;4.07;;;;;;;16.94;17.12;93464.94;5016852;28;20064;-89
2022/03/24 13:12:05;;;;;;;8.10;4.47;;;;;;;18.76;15.69;93403.75;5051059;28;20051;-88
2022/03/24 13:14:55;;;;;;;11.77;4.75;;;;;;;18.07;16.65;93370.84;5054088;28;20505;-89
2022/03/24 13:17:36;;;;;;;9.25;4.53;;;;;;;17.58;15.88;93346.28;5045561;28;20106;-88
2022/03/24 13:20:08;;;;;;;9.32;4.47;;;;;;;17.83;15.22;93338.75;5036107;28;20443;-88
2022/03/24 13:22:50;;;;;;;9.85;4.70;;;;;;;17.86;15.80;93364.63;5037943;28;20035;-88
2022/03/24 13:25:29;;;;;;;;;;;;;;;18.33;16.00;93393.16;5054261;28;20049;-88
2022/03/24 13:28:18;;;;;;;7.22;3.97;;;;;;;17.82;16.00;93384.88;5020402;28;19974;-89
2022/03/24 13:30:47;;;;;;;10.70;4.68;;;;;;;18.51;16.44;93384.91;5019917;28;20037;-89
2022/03/24 13:33:23;;;;;;;10.13;4.97;;;;;;;18.25;16.45;93363.69;5036133;28;20040;-89
2022/03/24 13:36:32;;;;;;;8.27;3.90;;;;;;;17.83;15.48;93331.59;5025340;28;20136;-89
2022/03/24 13:39:14;;;;;;;10.32;4.85;;;;;;;18.68;16.20;93357.56;5036302;28;20032;-90
2022/03/24 13:42:17;;;;;;;;;;;;;;;;;;;;;
2022/03/24 13:45:34;;;;;;;9.00;4.60;;;;;;;18.05;16.27;93335.94;5033175;28;20045;-89
2022/03/24 13:48:27;;;;;;;11.68;5.10;;;;;;;17.57;16.95;93323.56;5035518;28;20134;-89
2022/03/24 13:52:14;;;;;;;11.90;7.25;;;;;;;18.22;16.33;93366.22;5034594;28;20040;-89
2022/03/24 13:54:49;;;;;;;9.32;5.32;;;;;;;18.03;17.33;93305.56;5033512;28;20124;-89
2022/03/24 13:57:50;;;;;;;8.82;5.38;;;;;;;17.13;17.15;93337.75;5037506;28;20515;-89
2022/03/24 14:00:44;;;;;;;10.85;5.88;;;;;;;17.82;17.76;93308.84;5037145;28;20040;-90
2022/03/24 14:04:26;;;;;;;10.55;5.55;;;;;;;18.22;16.96;93307.91;5044236;28;20051;-89
2022/03/24 14:07:17;;;;;;;10.57;5.72;;;;;;;18.28;17.42;93357.78;5022392;28;20500;-89
2022/03/24 14:11:04;;;;;;;;;;;;;;;;;;;;;
2022/03/24 14:13:52;;;;;;;9.65;5.63;;;;;;;17.55;17.53;93315.16;5035343;28;20106;-89
2022/03/24 14:16:31;;;;;;;;;;;;;;;;;;;;;
2022/03/24 14:19:26;;;;;;;11.48;6.03;;;;;;;18.40;17.28;93351.84;4996920;28;20080;-90
2022/03/24 14:22:12;;;;;;;;;;;;;;;;;;;;;
2022/03/24 14:25:22;;;;;;;;;;;;;;;;;;;;;
2022/03/24 14:28:27;;;;;;;14.77;6.38;;;;;;;18.16;17.35;93311.81;5039149;28;20131;-89
2022/03/24 14:34:37;;;;;;;13.23;5.77;;;;;;;17.40;17.68;93278.53;5047709;28;20045;-89
2022/03/24 14:37:13;;;;;;;11.52;5.53;;;;;;;17.40;17.60;93278.53;5040547;28;20099;-89
2022/03/24 14:40:11;;;;;;;13.50;6.68;;;;;;;17.96;17.52;93332.53;5026047;28;20075;-89
2022/03/24 14:43:07;;;;;;;10.43;6.18;;;;;;;17.86;17.21;93280.66;5042492;28;20044;-89
2022/03/24 14:45:40;;;;;;;11.02;6.22;;;;;;;17.74;17.40;93263.78;5040830;28;20386;-88
2022/03/24 14:48:26;;;;;;;;;;;;;;;;;;;;;
2022/03/24 14:54:15;;;;;;;12.70;6.60;;;;;;;17.81;17.38;93256.16;5030550;28;20045;-90
2022/03/24 14:56:58;;;;;;;12.25;6.50;;;;;;;17.73;17.26;93272.84;5001963;28;20029;-89
2022/03/24 14:59:46;;;;;;;11.57;6.15;;;;;;;17.65;17.21;93269.88;5030981;28;20049;-89
2022/03/24 15:02:36;;;;;;;15.18;6.68;;;;;;;17.86;17.20;93312.44;4986286;28;20083;-89
2022/03/24 15:05:13;;;;;;;13.50;6.80;;;;;;;17.19;17.35;93265.13;5003396;28;20045;-89
2022/03/24 15:08:18;;;;;;;;;;;;;;;;;;;;;
2022/03/24 15:10:59;;;;;;;11.60;6.85;;;;;;;17.16;17.75;93279.75;5017642;28;20058;-88
2022/03/24 15:13:27;;;;;;;14.38;6.90;;;;;;;17.10;17.92;93312.72;5018509;28;20033;-88
2022/03/24 15:16:06;;;;;;;11.52;6.85;;;;;;;17.08;18.01;93288.44;5018959;28;20037;-89
2022/03/24 15:18:36;;;;;;;15.88;7.90;;;;;;;16.91;18.30;93302.38;5003973;28;20064;-89
2022/03/24 15:21:04;;;;;;;12.40;7.40;;;;;;;16.88;17.88;93300.34;5018889;28;20360;-88
2022/03/24 15:23:32;;;;;;;15.25;7.68;;;;;;;16.95;18.46;93278.72;5002319;28;20111;-88
2022/03/24 15:26:01;;;;;;;16.17;7.70;;;;;;;16.73;18.64;93282.19;5018296;28;20033;-88